עמוד ראשי
METAR-TAF:

METAR-TAF

שדות תעופה :

Old Crow, יוקון, קנדה

קו רוחב: 67-34N, קו אורך: 139-49W, גובה: 251מטר

METAR: חסר

זמן: 17:53 (00:53 UTC)

תחזית

הדו"ח נערך לפני 6 שעות ו 13דקות, בשעה 18:40 UTC
תחזית בתוקף מ 21 ב 19 UTC עד 22 ב 01 UTC
רוח 12קשר מכיוון צפון-מזרח
ראות: 10קילומטר
מעט עננים בגובה 4000רגל

TAF: CYOC 211840Z 2119/2201 05012KT P6SM FEW040 RMK NXT FCST BY 221500Z

תצפיות ותחזיות מזג אוויר לגבי יותר מ- 4,000 שדות תעופה ברחבי העולם. דוחות METAR ו- TAF.

התחנות הזמינות מסומנות בנקודות צהובות ואדומות על גבי המפה.

העבר את העכבר לנקודה הצבעונית על מנת לראות את שם התחנה.

לאחר מכן, לחץ כדי לראות את תוכן ואת תחזיות מזג האוויר.

כדי לשנות את המפה: לחץ על הכפתורים הירוקים עם הפלוס השחור כדי להתקרב; על הכפתור הירוק עם המקף כדי להתרחק; או בחיצים הירוקים למפות סמוכות.


METAR-TAF: